createdAt,value
2023-05-21T00:00:41.123Z,14.80
2023-05-21T00:03:42.301Z,16.20
2023-05-21T00:06:39.961Z,15.10
2023-05-21T00:09:38.571Z,18.70
2023-05-21T00:12:36.065Z,15.00
2023-05-21T00:15:33.986Z,15.40
2023-05-21T00:18:32.541Z,17.20
2023-05-21T00:21:32.009Z,16.00
2023-05-21T00:24:29.741Z,16.80
2023-05-21T00:27:27.183Z,14.60
2023-05-21T00:30:24.910Z,16.10
2023-05-21T00:33:22.913Z,19.60
2023-05-21T00:36:24.148Z,15.70
2023-05-21T00:39:22.017Z,16.30
2023-05-21T00:42:19.444Z,15.70
2023-05-21T00:45:17.254Z,16.20
2023-05-21T00:48:14.847Z,15.40
2023-05-21T00:51:12.634Z,16.40
2023-05-21T00:54:10.150Z,14.80
2023-05-21T00:57:07.802Z,15.00
2023-05-21T01:00:07.209Z,16.00
2023-05-21T01:03:05.163Z,16.40
2023-05-21T01:06:03.939Z,19.10
2023-05-21T01:09:02.124Z,15.90
2023-05-21T01:12:01.311Z,18.60
2023-05-21T01:14:59.401Z,15.50
2023-05-21T01:17:57.612Z,18.90
2023-05-21T01:20:55.563Z,15.00
2023-05-21T01:23:53.061Z,16.70
2023-05-21T01:26:50.793Z,15.10
2023-05-21T01:29:48.273Z,22.80
2023-05-21T01:32:46.211Z,17.40
2023-05-21T01:35:44.160Z,16.10
2023-05-21T01:38:41.822Z,16.50
2023-05-21T01:41:39.526Z,15.10
2023-05-21T01:44:37.002Z,16.70
2023-05-21T01:47:34.844Z,17.40
2023-05-21T01:50:32.685Z,15.40
2023-05-21T01:53:30.490Z,16.20
2023-05-21T01:56:28.702Z,17.80
2023-05-21T01:59:26.640Z,15.40
2023-05-21T02:02:24.602Z,15.90
2023-05-21T02:05:22.232Z,17.20
2023-05-21T02:08:19.987Z,18.10
2023-05-21T02:11:17.516Z,17.80
2023-05-21T02:14:15.519Z,16.60
2023-05-21T02:17:13.195Z,17.90
2023-05-21T02:20:12.388Z,21.20
2023-05-21T02:23:10.296Z,16.70
2023-05-21T02:26:07.829Z,17.40
2023-05-21T02:29:05.658Z,17.70
2023-05-21T02:32:03.511Z,19.00
2023-05-21T02:35:01.007Z,17.60
2023-05-21T02:37:59.700Z,18.60
2023-05-21T02:40:57.327Z,16.10
2023-05-21T02:43:55.208Z,19.70
2023-05-21T02:46:52.709Z,15.90
2023-05-21T02:49:50.515Z,16.60
2023-05-21T02:52:48.395Z,18.60
2023-05-21T02:55:45.889Z,18.50
2023-05-21T02:58:43.704Z,18.00
2023-05-21T03:01:41.930Z,17.00
2023-05-21T03:04:46.632Z,16.00
2023-05-21T03:07:44.316Z,17.90
2023-05-21T03:10:42.176Z,18.10
2023-05-21T03:13:40.092Z,18.90
2023-05-21T03:16:38.166Z,16.20
2023-05-21T03:19:36.272Z,15.40
2023-05-21T03:22:33.819Z,17.30
2023-05-21T03:25:31.661Z,19.40
2023-05-21T03:28:29.518Z,18.30
2023-05-21T03:31:27.038Z,16.50
2023-05-21T03:34:24.864Z,16.50
2023-05-21T03:37:22.425Z,17.00
2023-05-21T03:40:20.154Z,15.50
2023-05-21T03:43:17.642Z,17.10
2023-05-21T03:46:15.550Z,16.30
2023-05-21T03:49:13.348Z,17.70
2023-05-21T03:52:10.978Z,17.20
2023-05-21T03:55:08.666Z,17.70
2023-05-21T03:58:06.194Z,16.30
2023-05-21T04:01:05.127Z,17.50
2023-05-21T04:04:02.792Z,17.40
2023-05-21T04:07:01.492Z,16.50
2023-05-21T04:09:59.370Z,19.20
2023-05-21T04:12:56.885Z,16.30
2023-05-21T04:15:54.607Z,17.80
2023-05-21T04:18:52.467Z,19.30
2023-05-21T04:21:50.181Z,17.70
2023-05-21T04:24:48.897Z,18.70
2023-05-21T04:27:47.989Z,16.80
2023-05-21T04:30:46.069Z,18.70
2023-05-21T04:33:46.344Z,17.00
2023-05-21T04:36:44.279Z,15.50
2023-05-21T04:39:42.522Z,16.20
2023-05-21T04:42:41.527Z,16.70
2023-05-21T04:45:39.120Z,14.80
2023-05-21T04:48:36.870Z,16.90
2023-05-21T04:51:34.376Z,16.40
2023-05-21T04:54:32.119Z,15.70
2023-05-21T04:57:29.993Z,20.40
2023-05-21T05:00:27.963Z,15.50
2023-05-21T05:03:25.833Z,19.30
2023-05-21T05:06:25.917Z,18.60
2023-05-21T05:09:25.453Z,18.90
2023-05-21T05:12:22.949Z,18.50
2023-05-21T05:15:20.674Z,20.00
2023-05-21T05:18:18.175Z,17.00
2023-05-21T05:21:15.809Z,17.60
2023-05-21T05:24:13.641Z,15.30
2023-05-21T05:27:11.200Z,18.40
2023-05-21T05:30:09.060Z,16.10
2023-05-21T05:33:06.894Z,14.30
2023-05-21T05:36:04.833Z,18.90
2023-05-21T05:39:02.307Z,18.90
2023-05-21T05:42:00.034Z,16.10
2023-05-21T05:44:57.830Z,18.30
2023-05-21T05:47:55.398Z,13.60
2023-05-21T05:50:55.011Z,12.30
2023-05-21T05:53:52.540Z,11.60
2023-05-21T05:56:50.371Z,12.30
2023-05-21T05:59:47.909Z,16.30
2023-05-21T06:02:45.672Z,11.60
2023-05-21T06:05:43.255Z,12.40
2023-05-21T06:08:41.835Z,16.10
2023-05-21T06:11:39.522Z,13.50
2023-05-21T06:14:37.050Z,13.30
2023-05-21T06:17:34.931Z,14.00
2023-05-21T06:20:32.589Z,13.00
2023-05-21T06:23:32.779Z,11.60
2023-05-21T06:26:30.313Z,9.20
2023-05-21T06:29:28.329Z,9.80
2023-05-21T06:32:25.938Z,10.20
2023-05-21T06:35:23.769Z,10.60
2023-05-21T06:38:21.632Z,11.10
2023-05-21T06:41:19.131Z,11.50
2023-05-21T06:44:17.150Z,12.20
2023-05-21T06:47:14.684Z,11.50
2023-05-21T06:50:12.372Z,11.10
2023-05-21T06:53:09.849Z,9.50
2023-05-21T06:56:07.625Z,12.20
2023-05-21T06:59:05.157Z,10.30
2023-05-21T07:02:04.508Z,11.40
2023-05-21T07:05:02.564Z,11.30
2023-05-21T07:08:00.084Z,12.00
2023-05-21T07:10:57.894Z,10.60
2023-05-21T07:13:55.454Z,9.90
2023-05-21T07:16:53.247Z,11.90
2023-05-21T07:19:50.923Z,9.60
2023-05-21T07:22:48.610Z,8.80
2023-05-21T07:25:46.425Z,12.20
2023-05-21T07:28:43.950Z,8.80
2023-05-21T07:31:41.820Z,9.70
2023-05-21T07:34:39.574Z,9.00
2023-05-21T07:37:37.258Z,11.90
2023-05-21T07:40:34.818Z,9.80
2023-05-21T07:43:32.528Z,9.80
2023-05-21T07:46:30.151Z,12.00
2023-05-21T07:49:28.714Z,12.40
2023-05-21T07:52:26.267Z,10.20
2023-05-21T07:55:24.104Z,16.20
2023-05-21T07:58:22.345Z,10.10
2023-05-21T08:01:19.822Z,9.00
2023-05-21T08:04:17.866Z,10.30
2023-05-21T08:07:17.381Z,11.90
2023-05-21T08:10:16.182Z,10.20
2023-05-21T08:13:15.628Z,8.70
2023-05-21T08:16:13.224Z,11.70
2023-05-21T08:19:14.285Z,11.90
2023-05-21T08:22:12.040Z,9.70
2023-05-21T08:25:10.266Z,10.20
2023-05-21T08:28:07.809Z,8.90
2023-05-21T08:31:05.512Z,13.50
2023-05-21T08:34:03.359Z,9.90
2023-05-21T08:37:00.878Z,14.10
2023-05-21T08:39:58.795Z,12.10
2023-05-21T08:42:56.363Z,11.40
2023-05-21T08:45:54.079Z,9.40
2023-05-21T08:48:51.615Z,8.80
2023-05-21T08:51:50.694Z,6.80
2023-05-21T08:54:48.222Z,6.80
2023-05-21T08:57:45.910Z,7.40
2023-05-21T09:00:43.428Z,6.80
2023-05-21T09:03:41.348Z,6.80
2023-05-21T09:06:39.207Z,7.20
2023-05-21T09:09:36.738Z,7.70
2023-05-21T09:12:34.642Z,7.00
2023-05-21T09:15:39.138Z,8.20
2023-05-21T09:18:37.100Z,6.20
2023-05-21T09:21:34.898Z,9.90
2023-05-21T09:24:35.104Z,6.20
2023-05-21T09:27:34.014Z,7.80
2023-05-21T09:30:33.972Z,7.50
2023-05-21T09:33:33.633Z,8.80
2023-05-21T09:36:31.063Z,8.50
2023-05-21T09:39:28.911Z,6.10
2023-05-21T09:42:26.597Z,6.30
2023-05-21T09:45:24.100Z,6.70
2023-05-21T09:48:21.786Z,6.40
2023-05-21T09:51:19.334Z,7.50
2023-05-21T09:54:17.183Z,5.90
2023-05-21T09:57:14.687Z,5.90
2023-05-21T10:00:14.070Z,6.00
2023-05-21T10:03:12.316Z,8.10
2023-05-21T10:06:10.165Z,5.10
2023-05-21T10:09:07.818Z,6.60
2023-05-21T10:12:05.294Z,6.70
2023-05-21T10:15:02.937Z,7.30
2023-05-21T10:18:00.446Z,5.30
2023-05-21T10:20:58.092Z,4.90
2023-05-21T10:23:56.790Z,5.20
2023-05-21T10:26:54.263Z,6.10
2023-05-21T10:29:54.297Z,6.60
2023-05-21T10:32:52.002Z,6.20
2023-05-21T10:35:51.404Z,6.20
2023-05-21T10:38:49.562Z,6.70
2023-05-21T10:41:47.201Z,5.70
2023-05-21T10:44:44.902Z,5.10
2023-05-21T10:47:42.406Z,7.10
2023-05-21T10:50:40.498Z,6.90
2023-05-21T10:53:38.492Z,4.90
2023-05-21T10:56:36.233Z,6.00
2023-05-21T10:59:33.673Z,7.50
2023-05-21T11:02:31.539Z,7.30
2023-05-21T11:05:29.378Z,7.80
2023-05-21T11:08:26.837Z,7.00
2023-05-21T11:11:24.685Z,6.60
2023-05-21T11:14:22.113Z,5.00
2023-05-21T11:17:20.355Z,5.90
2023-05-21T11:20:18.108Z,5.60
2023-05-21T11:23:15.838Z,4.60
2023-05-21T11:26:13.547Z,7.40
2023-05-21T11:29:11.264Z,5.30
2023-05-21T11:32:09.487Z,5.50
2023-05-21T11:35:06.995Z,4.80
2023-05-21T11:38:04.777Z,6.00
2023-05-21T11:41:02.216Z,6.20
2023-05-21T11:43:59.929Z,5.40
2023-05-21T11:46:58.830Z,6.20
2023-05-21T11:49:56.469Z,5.40
2023-05-21T11:52:54.229Z,5.10
2023-05-21T11:55:57.729Z,8.60
2023-05-21T11:59:01.333Z,5.90
2023-05-21T12:01:59.437Z,6.50
2023-05-21T12:05:00.807Z,7.00
2023-05-21T12:07:58.648Z,5.70
2023-05-21T12:10:56.158Z,5.50
2023-05-21T12:13:53.990Z,6.20
2023-05-21T12:16:51.627Z,6.60
2023-05-21T12:19:49.500Z,5.60
2023-05-21T12:22:46.987Z,12.50
2023-05-21T12:25:45.222Z,9.00
2023-05-21T12:28:43.009Z,5.70
2023-05-21T12:31:40.654Z,5.00
2023-05-21T12:34:39.148Z,4.80
2023-05-21T12:37:37.134Z,5.90
2023-05-21T12:40:34.948Z,5.50
2023-05-21T12:43:32.630Z,6.90
2023-05-21T12:46:30.247Z,5.30
2023-05-21T12:49:27.745Z,4.20
2023-05-21T12:52:26.077Z,7.70
2023-05-21T12:55:23.743Z,5.40
2023-05-21T12:58:22.392Z,6.30
2023-05-21T13:01:20.115Z,6.70
2023-05-21T13:04:17.604Z,8.60
2023-05-21T13:07:16.332Z,6.50
2023-05-21T13:10:13.827Z,5.10
2023-05-21T13:13:11.722Z,6.00
2023-05-21T13:16:09.248Z,5.10
2023-05-21T13:19:07.158Z,6.30
2023-05-21T13:22:07.059Z,6.00
2023-05-21T13:25:04.499Z,7.70
2023-05-21T13:28:02.348Z,4.40
2023-05-21T13:30:59.828Z,11.30
2023-05-21T13:33:57.569Z,5.80
2023-05-21T13:36:55.034Z,5.70
2023-05-21T13:39:52.711Z,5.70
2023-05-21T13:42:50.477Z,5.20
2023-05-21T13:45:49.577Z,4.50
2023-05-21T13:48:47.721Z,4.40
2023-05-21T13:51:45.259Z,4.60
2023-05-21T13:54:43.585Z,4.00
2023-05-21T13:57:41.140Z,6.60
2023-05-21T14:00:39.114Z,4.60
2023-05-21T14:03:36.870Z,4.10
2023-05-21T14:06:34.733Z,4.60
2023-05-21T14:09:32.500Z,7.90
2023-05-21T14:12:29.922Z,8.20
2023-05-21T14:15:28.063Z,5.00
2023-05-21T14:18:25.504Z,5.00
2023-05-21T14:21:23.267Z,4.40
2023-05-21T14:24:20.727Z,5.00
2023-05-21T14:27:18.525Z,4.70
2023-05-21T14:30:16.370Z,5.60
2023-05-21T14:33:13.911Z,4.90
2023-05-21T14:36:11.621Z,6.20
2023-05-21T14:39:09.120Z,5.80
2023-05-21T14:42:06.922Z,6.40
2023-05-21T14:45:17.352Z,5.00
2023-05-21T14:48:16.376Z,6.00
2023-05-21T14:51:14.590Z,7.60
2023-05-21T14:54:12.086Z,4.80
2023-05-21T14:57:09.852Z,4.60
2023-05-21T15:00:07.348Z,7.10
2023-05-21T15:03:05.272Z,5.60
2023-05-21T15:06:02.819Z,5.50
2023-05-21T15:09:00.564Z,5.00
2023-05-21T15:11:58.341Z,5.80
2023-05-21T15:14:55.804Z,4.70
2023-05-21T15:17:53.696Z,5.50
2023-05-21T15:20:51.188Z,5.60
2023-05-21T15:23:48.878Z,6.50
2023-05-21T15:26:46.387Z,5.50
2023-05-21T15:29:45.954Z,6.20
2023-05-21T15:32:43.409Z,4.70
2023-05-21T15:35:41.612Z,5.40
2023-05-21T15:38:39.770Z,6.40
2023-05-21T15:41:38.519Z,7.90
2023-05-21T15:44:36.129Z,5.40
2023-05-21T15:47:33.661Z,4.70
2023-05-21T15:50:31.636Z,6.80
2023-05-21T15:53:29.996Z,5.10
2023-05-21T15:56:28.061Z,4.30
2023-05-21T15:59:27.810Z,4.30
2023-05-21T16:02:25.336Z,6.20
2023-05-21T16:05:23.076Z,6.20
2023-05-21T16:08:20.746Z,8.10
2023-05-21T16:11:18.574Z,6.90
2023-05-21T16:14:16.055Z,4.80
2023-05-21T16:17:13.955Z,6.70
2023-05-21T16:20:11.634Z,5.70
2023-05-21T16:23:09.057Z,4.90
2023-05-21T16:26:06.902Z,6.90
2023-05-21T16:29:04.391Z,7.40
2023-05-21T16:32:02.250Z,4.70
2023-05-21T16:34:59.802Z,4.30
2023-05-21T16:37:58.080Z,4.30
2023-05-21T16:40:55.938Z,6.90
2023-05-21T16:43:54.512Z,4.60
2023-05-21T16:46:52.152Z,5.40
2023-05-21T16:49:49.714Z,3.90
2023-05-21T16:52:49.820Z,4.90
2023-05-21T16:55:47.534Z,6.30
2023-05-21T16:58:44.983Z,7.40
2023-05-21T17:01:42.879Z,5.90
2023-05-21T17:04:40.443Z,6.70
2023-05-21T17:07:38.821Z,4.30
2023-05-21T17:10:36.254Z,8.50
2023-05-21T17:13:34.046Z,7.30
2023-05-21T17:16:31.641Z,6.50
2023-05-21T17:19:29.679Z,4.60
2023-05-21T17:22:27.741Z,8.20
2023-05-21T17:25:25.694Z,6.00
2023-05-21T17:28:23.403Z,6.80
2023-05-21T17:31:21.982Z,5.20
2023-05-21T17:34:19.840Z,5.40
2023-05-21T17:37:17.323Z,5.20
2023-05-21T17:40:15.079Z,5.50
2023-05-21T17:43:12.826Z,5.70
2023-05-21T17:46:10.833Z,5.50
2023-05-21T17:49:10.204Z,7.50
2023-05-21T17:52:07.637Z,6.90
2023-05-21T17:55:05.955Z,6.50
2023-05-21T17:58:05.520Z,6.10
2023-05-21T18:01:03.326Z,5.80
2023-05-21T18:04:00.841Z,6.10
2023-05-21T18:06:58.673Z,5.70
2023-05-21T18:09:56.112Z,5.50
2023-05-21T18:12:53.901Z,5.60
2023-05-21T18:15:51.459Z,7.20
2023-05-21T18:18:49.480Z,5.40
2023-05-21T18:21:48.091Z,6.00
2023-05-21T18:24:46.315Z,6.10
2023-05-21T18:27:43.974Z,8.10
2023-05-21T18:30:41.432Z,9.20
2023-05-21T18:33:39.797Z,7.70
2023-05-21T18:36:39.017Z,8.70
2023-05-21T18:39:36.772Z,5.50
2023-05-21T18:42:34.355Z,7.10
2023-05-21T18:45:31.819Z,6.80
2023-05-21T18:48:29.756Z,7.30
2023-05-21T18:51:27.262Z,6.10
2023-05-21T18:54:24.974Z,6.20
2023-05-21T18:57:22.533Z,5.30
2023-05-21T19:00:22.003Z,7.00
2023-05-21T19:03:19.583Z,7.50
2023-05-21T19:06:17.381Z,6.50
2023-05-21T19:09:15.082Z,6.10
2023-05-21T19:12:12.521Z,8.10
2023-05-21T19:18:30.456Z,6.70
2023-05-21T19:21:28.604Z,11.50
2023-05-21T19:24:26.515Z,7.30
2023-05-21T19:27:24.338Z,9.20
2023-05-21T19:30:22.181Z,6.70
2023-05-21T19:33:19.704Z,7.60
2023-05-21T19:36:17.509Z,9.20
2023-05-21T19:39:15.017Z,14.80
2023-05-21T19:42:12.676Z,9.00
2023-05-21T19:45:11.664Z,9.90
2023-05-21T19:48:09.508Z,9.10
2023-05-21T19:51:07.217Z,11.80
2023-05-21T19:54:04.730Z,8.80
2023-05-21T19:57:02.496Z,7.60
2023-05-21T20:00:00.066Z,7.50
2023-05-21T20:02:57.930Z,6.70
2023-05-21T20:05:55.531Z,7.50
2023-05-21T20:08:53.843Z,7.40
2023-05-21T20:11:51.322Z,7.80
2023-05-21T20:14:49.076Z,8.40
2023-05-21T20:17:46.981Z,6.60
2023-05-21T20:20:44.432Z,8.50
2023-05-21T20:23:43.909Z,9.90
2023-05-21T20:26:41.422Z,6.90
2023-05-21T20:29:39.242Z,8.40
2023-05-21T20:32:36.772Z,8.00
2023-05-21T20:35:34.572Z,7.30
2023-05-21T20:38:33.281Z,8.60
2023-05-21T20:41:38.599Z,7.00
2023-05-21T20:44:36.868Z,8.20
2023-05-21T20:47:34.384Z,7.20
2023-05-21T20:50:34.966Z,8.60
2023-05-21T20:53:32.404Z,9.20
2023-05-21T20:56:41.483Z,8.10
2023-05-21T20:59:39.963Z,9.90
2023-05-21T21:02:39.054Z,9.50
2023-05-21T21:05:36.659Z,10.10
2023-05-21T21:08:34.975Z,13.40
2023-05-21T21:11:32.425Z,8.30
2023-05-21T21:14:32.010Z,9.00
2023-05-21T21:17:30.958Z,7.50
2023-05-21T21:20:28.482Z,11.70
2023-05-21T21:23:26.618Z,6.90
2023-05-21T21:26:24.094Z,8.60
2023-05-21T21:29:21.812Z,9.60
2023-05-21T21:32:19.289Z,11.90
2023-05-21T21:35:17.250Z,8.20
2023-05-21T21:38:14.749Z,8.80
2023-05-21T21:41:12.471Z,8.20
2023-05-21T21:44:10.243Z,8.20
2023-05-21T21:47:07.750Z,7.40
2023-05-21T21:50:05.548Z,7.50
2023-05-21T21:53:03.769Z,9.30
2023-05-21T21:56:01.644Z,10.20
2023-05-21T21:58:59.139Z,7.80
2023-05-21T22:01:57.171Z,8.20
2023-05-21T22:04:54.662Z,7.90
2023-05-21T22:07:52.423Z,10.80
2023-05-21T22:10:49.927Z,8.20
2023-05-21T22:13:47.737Z,8.60
2023-05-21T22:16:45.523Z,8.00
2023-05-21T22:19:43.070Z,12.30
2023-05-21T22:22:41.016Z,9.20
2023-05-21T22:25:38.465Z,11.60
2023-05-21T22:28:36.361Z,7.80
2023-05-21T22:31:33.888Z,8.10
2023-05-21T22:34:31.663Z,8.30
2023-05-21T22:37:29.139Z,7.80
2023-05-21T22:40:26.842Z,7.90
2023-05-21T22:43:24.688Z,8.00
2023-05-21T22:46:22.222Z,7.10
2023-05-21T22:49:20.198Z,8.50
2023-05-21T22:52:17.823Z,10.30
2023-05-21T22:55:16.365Z,6.90
2023-05-21T22:58:13.880Z,7.40
2023-05-21T23:01:11.692Z,8.00
2023-05-21T23:04:09.187Z,7.50
2023-05-21T23:07:06.922Z,8.90
2023-05-21T23:10:04.697Z,8.40
2023-05-21T23:13:02.210Z,10.60
2023-05-21T23:15:59.896Z,8.60
2023-05-21T23:18:57.386Z,8.40
2023-05-21T23:21:55.007Z,9.90
2023-05-21T23:24:54.269Z,8.40
2023-05-21T23:27:52.102Z,7.70
2023-05-21T23:30:49.574Z,10.10
2023-05-21T23:33:47.435Z,9.40
2023-05-21T23:36:44.890Z,9.10
2023-05-21T23:39:43.959Z,8.50
2023-05-21T23:42:41.862Z,7.50
2023-05-21T23:45:41.208Z,9.70
2023-05-21T23:48:38.840Z,7.40
2023-05-21T23:51:36.332Z,9.00
2023-05-21T23:54:34.150Z,10.00
2023-05-21T23:57:31.612Z,8.40
